Meloria — IBXK — position and weather

sailwx.info

Track history (hours):
 
Tides and Currents Weather Stations Pressure Air Temp Water Temp Dewpoint Dewpoint Depression Visibility Wind Speed Wind Dir Waves Ship Positions

Meloria

Last reported at 2016-Jun-27 21:17 UTC. Time now 2016-Jun-27 22:22 UTC.
Position N 40°50' E 014°18'.

Length 176 m; draft 10 m.

Type: Tanker. MMSI: 247171100.

Date/timePositionNaut miles runAvg speedWind from/ knotsBaromVisibWave heightAir tempDewpointWater temp
2016-Jun-27 21:17N 40°50' E 014°18'0 0.0
2016-Jun-27 20:29N 40°50' E 014°18'0 0.0
2016-Jun-27 19:29N 40°50' E 014°18'0 0.0
2016-Jun-27 16:29N 40°50' E 014°18'0 0.0
2016-Jun-27 15:11N 40°50' E 014°18'0 0.0
2016-Jun-27 14:29N 40°50' E 014°18'0 0.0
2016-Jun-27 13:29N 40°50' E 014°18'0 0.0
2016-Jun-27 12:29N 40°50' E 014°18'0 0.0
2016-Jun-27 11:29N 40°50' E 014°18'0 0.0
2016-Jun-27 10:29N 40°50' E 014°18'0 0.0
2016-Jun-27 07:23N 40°50' E 014°18'0 0.0
2016-Jun-26 20:04N 40°50' E 014°18'0 0.0
2016-Jun-26 19:10N 40°50' E 014°18'0 0.0
2016-Jun-26 18:28N 40°50' E 014°18'0 0.0
2016-Jun-26 17:22N 40°50' E 014°18'0 0.0
2016-Jun-26 16:28N 40°50' E 014°18'0 0.0
2016-Jun-26 15:22N 40°50' E 014°18'0 0.0
2016-Jun-26 14:28N 40°50' E 014°18'0 0.0
2016-Jun-26 13:10N 40°50' E 014°18'0 0.0
2016-Jun-26 12:28N 40°50' E 014°18'0 0.0
2016-Jun-26 11:28N 40°50' E 014°18'0 0.0
2016-Jun-26 10:28N 40°50' E 014°18'0 0.0
2016-Jun-26 06:28N 40°50' E 014°18'0 0.0
2016-Jun-26 04:16N 40°50' E 014°18'0 0.0
2016-Jun-26 03:16N 40°50' E 014°18'0 0.0
2016-Jun-26 02:28N 40°50' E 014°18'0 0.0
2016-Jun-26 01:28N 40°50' E 014°18'0 0.0
2016-Jun-26 00:22N 40°50' E 014°18'0 0.0
2016-Jun-25 23:28N 40°50' E 014°18'0 0.0
2016-Jun-25 22:16N 40°50' E 014°18'0 0.0
2016-Jun-25 21:28N 40°50' E 014°18'0 0.0
2016-Jun-25 20:28N 40°50' E 014°18'0 0.0
2016-Jun-25 19:34N 40°50' E 014°18'0 0.0
2016-Jun-25 18:22N 40°50' E 014°18'0 0.0
2016-Jun-25 17:21N 40°50' E 014°18'0 0.0
2016-Jun-25 16:33N 40°50' E 014°18'0 0.0
2016-Jun-25 15:27N 40°50' E 014°18'0 0.0
2016-Jun-25 14:33N 40°50' E 014°18'0 0.0
2016-Jun-25 13:27N 40°50' E 014°18'0 0.0
2016-Jun-25 12:33N 40°50' E 014°18'0 0.0
2016-Jun-25 11:09N 40°50' E 014°18'0 0.0
2016-Jun-25 10:33N 40°50' E 014°18'0 0.0
2016-Jun-25 08:15N 40°50' E 014°18'0 0.1
2016-Jun-25 07:33N 40°50' E 014°17'2 1.5
2016-Jun-25 06:08N 40°48' E 014°19'0 0.0
2016-Jun-25 04:32N 40°48' E 014°19'0 0.0
2016-Jun-25 03:32N 40°48' E 014°19'0 0.0
2016-Jun-24 21:28N 40°48' E 014°19'9 9.9
2016-Jun-24 20:34N 40°41' E 014°12'1311.3
2016-Jun-24 19:24N 40°28' E 014°10'13311.8
2016-Jun-24 08:09N 38°25' E 015°16'812.4
2016-Jun-24 07:33N 38°18' E 015°18'5 1.7
2016-Jun-24 04:30N 38°13' E 015°16'0 0.0
2016-Jun-24 03:30N 38°13' E 015°16'0 0.0
2016-Jun-24 02:24N 38°13' E 015°16'0 0.0
2016-Jun-24 01:30N 38°13' E 015°16'0 0.0
2016-Jun-24 00:30N 38°13' E 015°16'0 0.0
2016-Jun-23 23:30N 38°13' E 015°16'0 0.0
2016-Jun-23 22:30N 38°13' E 015°16'0 0.0
2016-Jun-23 21:30N 38°13' E 015°16'0 0.0
2016-Jun-23 20:30N 38°13' E 015°16'0 0.0
2016-Jun-23 19:30N 38°13' E 015°16'0 0.0
2016-Jun-23 18:29N 38°13' E 015°16'0 0.0
2016-Jun-23 17:23N 38°13' E 015°16'0 0.0
2016-Jun-23 16:29N 38°13' E 015°16'0 0.0
2016-Jun-23 15:29N 38°13' E 015°16'0 0.0
2016-Jun-23 14:29N 38°13' E 015°16'0 0.0
2016-Jun-23 13:29N 38°13' E 015°16'0 0.0
2016-Jun-23 12:29N 38°13' E 015°16'0 0.0
2016-Jun-23 11:29N 38°13' E 015°16'0 0.0
2016-Jun-23 10:29N 38°13' E 015°16'0 0.0
2016-Jun-23 09:29N 38°13' E 015°16'0 0.0
2016-Jun-23 08:29N 38°13' E 015°16'0 0.0
2016-Jun-23 07:29N 38°13' E 015°16'0 0.0
2016-Jun-23 05:23N 38°13' E 015°16'0 0.0
2016-Jun-23 04:29N 38°13' E 015°16'0 0.0
2016-Jun-23 03:29N 38°13' E 015°16'0 0.0
2016-Jun-23 02:29N 38°13' E 015°16'0 0.0
2016-Jun-23 01:29N 38°13' E 015°16'0 0.0
2016-Jun-23 00:29N 38°13' E 015°16'0 0.0
2016-Jun-22 23:29N 38°13' E 015°16'0 0.0
2016-Jun-22 22:29N 38°13' E 015°16'0 0.0
2016-Jun-22 21:29N 38°13' E 015°16'0 0.0
2016-Jun-22 20:29N 38°13' E 015°16'0 0.0
2016-Jun-22 19:29N 38°13' E 015°16'0 0.0
2016-Jun-22 18:11N 38°13' E 015°16'0 0.0
2016-Jun-22 17:29N 38°13' E 015°16'0 0.0
2016-Jun-22 16:29N 38°13' E 015°16'0 0.0
2016-Jun-22 15:29N 38°13' E 015°16'0 0.0
2016-Jun-22 14:11N 38°13' E 015°16'0 0.0
2016-Jun-22 13:29N 38°13' E 015°16'0 0.0
2016-Jun-22 12:29N 38°13' E 015°16'0 0.0
2016-Jun-22 11:29N 38°13' E 015°16'0 0.0
2016-Jun-22 10:23N 38°13' E 015°16'0 0.0
2016-Jun-22 09:29N 38°13' E 015°16'0 0.0
2016-Jun-22 08:29N 38°13' E 015°16'0 0.0
2016-Jun-22 07:29N 38°13' E 015°16'0 0.0
2016-Jun-22 06:23N 38°13' E 015°16'0 0.0
2016-Jun-22 05:22N 38°13' E 015°16'0 0.0
2016-Jun-22 04:28N 38°13' E 015°16'0 0.0
2016-Jun-22 03:28N 38°13' E 015°16'0 0.0
2016-Jun-22 02:28N 38°13' E 015°16'0 0.0
2016-Jun-22 01:28N 38°13' E 015°16'0 0.0
2016-Jun-22 00:28N 38°13' E 015°16'0 0.0
2016-Jun-21 23:28N 38°13' E 015°16'0 0.0
2016-Jun-21 22:28N 38°13' E 015°16'0 0.0
2016-Jun-21 21:28N 38°13' E 015°16'0 0.0
2016-Jun-21 20:28N 38°13' E 015°16'0 0.0
2016-Jun-21 19:16N 38°13' E 015°16'0 0.0
2016-Jun-21 18:28N 38°13' E 015°16'0 0.0
2016-Jun-21 17:28N 38°13' E 015°16'0 0.0
2016-Jun-21 12:28N 38°13' E 015°16'0 0.0
2016-Jun-21 11:22N 38°13' E 015°16'1 1.5
2016-Jun-21 10:27N 38°13' E 015°17'0 0.0
2016-Jun-21 09:33N 38°13' E 015°17'0 0.0
2016-Jun-21 08:33N 38°13' E 015°17'0 0.0
2016-Jun-21 07:33N 38°13' E 015°18'0 0.0
2016-Jun-21 05:33N 38°13' E 015°18'0 0.0
2016-Jun-21 04:33N 38°13' E 015°18'0 0.0
2016-Jun-21 03:33N 38°13' E 015°18'0 0.0
2016-Jun-21 02:33N 38°13' E 015°18'0 0.0
2016-Jun-21 01:27N 38°13' E 015°18'0 0.0
2016-Jun-21 00:33N 38°13' E 015°18'0 0.0
2016-Jun-20 23:33N 38°13' E 015°18'0 0.0
2016-Jun-20 22:33N 38°13' E 015°18'0 0.0
2016-Jun-20 21:33N 38°13' E 015°18'0 0.1
2016-Jun-20 20:33N 38°13' E 015°17'9 8.8
2016-Jun-20 19:33N 38°18' E 015°26'1313.0
2016-Jun-20 18:33N 38°19' E 015°43'1211.9
2016-Jun-20 17:33N 38°09' E 015°36'1212.1
2016-Jun-20 16:33N 37°57' E 015°37'1312.6
2016-Jun-20 15:31N 37°52' E 015°53'47510.3
2016-Jun-18 17:25N 45°32' E 013°13'  
Track history (hours):
 
Tides and Currents Weather Stations Pressure Air Temp Water Temp Dewpoint Dewpoint Depression Visibility Wind Speed Wind Dir Waves Ship Positions

Meloria

Last reported at 2016-Jun-27 21:17 UTC. Time now 2016-Jun-27 22:22 UTC.
Position N 40°50' E 014°18'.

Length 176 m; draft 10 m.

Type: Tanker. MMSI: 247171100.

Date/timePositionNaut miles runAvg speedWind from/ knotsBaromVisibWave heightAir tempDewpointWater temp
2016-Jun-27 21:17N 40°50' E 014°18'0 0.0
2016-Jun-27 20:29N 40°50' E 014°18'0 0.0
2016-Jun-27 19:29N 40°50' E 014°18'0 0.0
2016-Jun-27 16:29N 40°50' E 014°18'0 0.0
2016-Jun-27 15:11N 40°50' E 014°18'0 0.0
2016-Jun-27 14:29N 40°50' E 014°18'0 0.0
2016-Jun-27 13:29N 40°50' E 014°18'0 0.0
2016-Jun-27 12:29N 40°50' E 014°18'0 0.0
2016-Jun-27 11:29N 40°50' E 014°18'0 0.0
2016-Jun-27 10:29N 40°50' E 014°18'0 0.0
2016-Jun-27 07:23N 40°50' E 014°18'0 0.0
2016-Jun-26 20:04N 40°50' E 014°18'0 0.0
2016-Jun-26 19:10N 40°50' E 014°18'0 0.0
2016-Jun-26 18:28N 40°50' E 014°18'0 0.0
2016-Jun-26 17:22N 40°50' E 014°18'0 0.0
2016-Jun-26 16:28N 40°50' E 014°18'0 0.0
2016-Jun-26 15:22N 40°50' E 014°18'0 0.0
2016-Jun-26 14:28N 40°50' E 014°18'0 0.0
2016-Jun-26 13:10N 40°50' E 014°18'0 0.0
2016-Jun-26 12:28N 40°50' E 014°18'0 0.0
2016-Jun-26 11:28N 40°50' E 014°18'0 0.0
2016-Jun-26 10:28N 40°50' E 014°18'0 0.0
2016-Jun-26 06:28N 40°50' E 014°18'0 0.0
2016-Jun-26 04:16N 40°50' E 014°18'0 0.0
2016-Jun-26 03:16N 40°50' E 014°18'0 0.0
2016-Jun-26 02:28N 40°50' E 014°18'0 0.0
2016-Jun-26 01:28N 40°50' E 014°18'0 0.0
2016-Jun-26 00:22N 40°50' E 014°18'0 0.0
2016-Jun-25 23:28N 40°50' E 014°18'0 0.0
2016-Jun-25 22:16N 40°50' E 014°18'0 0.0
2016-Jun-25 21:28N 40°50' E 014°18'0 0.0
2016-Jun-25 20:28N 40°50' E 014°18'0 0.0
2016-Jun-25 19:34N 40°50' E 014°18'0 0.0
2016-Jun-25 18:22N 40°50' E 014°18'0 0.0
2016-Jun-25 17:21N 40°50' E 014°18'0 0.0
2016-Jun-25 16:33N 40°50' E 014°18'0 0.0
2016-Jun-25 15:27N 40°50' E 014°18'0 0.0
2016-Jun-25 14:33N 40°50' E 014°18'0 0.0
2016-Jun-25 13:27N 40°50' E 014°18'0 0.0
2016-Jun-25 12:33N 40°50' E 014°18'0 0.0
2016-Jun-25 11:09N 40°50' E 014°18'0 0.0
2016-Jun-25 10:33N 40°50' E 014°18'0 0.0
2016-Jun-25 08:15N 40°50' E 014°18'0 0.1
2016-Jun-25 07:33N 40°50' E 014°17'2 1.5
2016-Jun-25 06:08N 40°48' E 014°19'0 0.0
2016-Jun-25 04:32N 40°48' E 014°19'0 0.0
2016-Jun-25 03:32N 40°48' E 014°19'0 0.0
2016-Jun-24 21:28N 40°48' E 014°19'9 9.9
2016-Jun-24 20:34N 40°41' E 014°12'1311.3
2016-Jun-24 19:24N 40°28' E 014°10'13311.8
2016-Jun-24 08:09N 38°25' E 015°16'812.4
2016-Jun-24 07:33N 38°18' E 015°18'5 1.7
2016-Jun-24 04:30N 38°13' E 015°16'0 0.0
2016-Jun-24 03:30N 38°13' E 015°16'0 0.0
2016-Jun-24 02:24N 38°13' E 015°16'0 0.0
2016-Jun-24 01:30N 38°13' E 015°16'0 0.0
2016-Jun-24 00:30N 38°13' E 015°16'0 0.0
2016-Jun-23 23:30N 38°13' E 015°16'0 0.0
2016-Jun-23 22:30N 38°13' E 015°16'0 0.0
2016-Jun-23 21:30N 38°13' E 015°16'0 0.0
2016-Jun-23 20:30N 38°13' E 015°16'0 0.0
2016-Jun-23 19:30N 38°13' E 015°16'0 0.0
2016-Jun-23 18:29N 38°13' E 015°16'0 0.0
2016-Jun-23 17:23N 38°13' E 015°16'0 0.0
2016-Jun-23 16:29N 38°13' E 015°16'0 0.0
2016-Jun-23 15:29N 38°13' E 015°16'0 0.0
2016-Jun-23 14:29N 38°13' E 015°16'0 0.0
2016-Jun-23 13:29N 38°13' E 015°16'0 0.0
2016-Jun-23 12:29N 38°13' E 015°16'0 0.0
2016-Jun-23 11:29N 38°13' E 015°16'0 0.0
2016-Jun-23 10:29N 38°13' E 015°16'0 0.0
2016-Jun-23 09:29N 38°13' E 015°16'0 0.0
2016-Jun-23 08:29N 38°13' E 015°16'0 0.0
2016-Jun-23 07:29N 38°13' E 015°16'0 0.0
2016-Jun-23 05:23N 38°13' E 015°16'0 0.0
2016-Jun-23 04:29N 38°13' E 015°16'0 0.0
2016-Jun-23 03:29N 38°13' E 015°16'0 0.0
2016-Jun-23 02:29N 38°13' E 015°16'0 0.0
2016-Jun-23 01:29N 38°13' E 015°16'0 0.0
2016-Jun-23 00:29N 38°13' E 015°16'0 0.0
2016-Jun-22 23:29N 38°13' E 015°16'0 0.0
2016-Jun-22 22:29N 38°13' E 015°16'0 0.0
2016-Jun-22 21:29N 38°13' E 015°16'0 0.0
2016-Jun-22 20:29N 38°13' E 015°16'0 0.0
2016-Jun-22 19:29N 38°13' E 015°16'0 0.0
2016-Jun-22 18:11N 38°13' E 015°16'0 0.0
2016-Jun-22 17:29N 38°13' E 015°16'0 0.0
2016-Jun-22 16:29N 38°13' E 015°16'0 0.0
2016-Jun-22 15:29N 38°13' E 015°16'0 0.0
2016-Jun-22 14:11N 38°13' E 015°16'0 0.0
2016-Jun-22 13:29N 38°13' E 015°16'0 0.0
2016-Jun-22 12:29N 38°13' E 015°16'0 0.0
2016-Jun-22 11:29N 38°13' E 015°16'0 0.0
2016-Jun-22 10:23N 38°13' E 015°16'0 0.0
2016-Jun-22 09:29N 38°13' E 015°16'0 0.0
2016-Jun-22 08:29N 38°13' E 015°16'0 0.0
2016-Jun-22 07:29N 38°13' E 015°16'0 0.0
2016-Jun-22 06:23N 38°13' E 015°16'0 0.0
2016-Jun-22 05:22N 38°13' E 015°16'0 0.0
2016-Jun-22 04:28N 38°13' E 015°16'0 0.0
2016-Jun-22 03:28N 38°13' E 015°16'0 0.0
2016-Jun-22 02:28N 38°13' E 015°16'0 0.0
2016-Jun-22 01:28N 38°13' E 015°16'0 0.0
2016-Jun-22 00:28N 38°13' E 015°16'0 0.0
2016-Jun-21 23:28N 38°13' E 015°16'0 0.0
2016-Jun-21 22:28N 38°13' E 015°16'0 0.0
2016-Jun-21 21:28N 38°13' E 015°16'0 0.0
2016-Jun-21 20:28N 38°13' E 015°16'0 0.0
2016-Jun-21 19:16N 38°13' E 015°16'0 0.0
2016-Jun-21 18:28N 38°13' E 015°16'0 0.0
2016-Jun-21 17:28N 38°13' E 015°16'0 0.0
2016-Jun-21 12:28N 38°13' E 015°16'0 0.0
2016-Jun-21 11:22N 38°13' E 015°16'1 1.5
2016-Jun-21 10:27N 38°13' E 015°17'0 0.0
2016-Jun-21 09:33N 38°13' E 015°17'0 0.0
2016-Jun-21 08:33N 38°13' E 015°17'0 0.0
2016-Jun-21 07:33N 38°13' E 015°18'0 0.0
2016-Jun-21 05:33N 38°13' E 015°18'0 0.0
2016-Jun-21 04:33N 38°13' E 015°18'0 0.0
2016-Jun-21 03:33N 38°13' E 015°18'0 0.0
2016-Jun-21 02:33N 38°13' E 015°18'0 0.0
2016-Jun-21 01:27N 38°13' E 015°18'0 0.0
2016-Jun-21 00:33N 38°13' E 015°18'0 0.0
2016-Jun-20 23:33N 38°13' E 015°18'0 0.0
2016-Jun-20 22:33N 38°13' E 015°18'0 0.0
2016-Jun-20 21:33N 38°13' E 015°18'0 0.1
2016-Jun-20 20:33N 38°13' E 015°17'9 8.8
2016-Jun-20 19:33N 38°18' E 015°26'1313.0
2016-Jun-20 18:33N 38°19' E 015°43'1211.9
2016-Jun-20 17:33N 38°09' E 015°36'1212.1
2016-Jun-20 16:33N 37°57' E 015°37'1312.6
2016-Jun-20 15:31N 37°52' E 015°53'47510.3
2016-Jun-18 17:25N 45°32' E 013°13'  

Dump ship's entire track history